Time;durP1;ratioP1;P1;durP2;ratioP2;P2;SDS_P1;SDS_P2;PMS_P1;PMS_P2;Temp;Humidity;BMP_temperature;BMP_pressure;BME280_temperature;BME280_humidity;BME280_pressure;Samples;Min_cycle;Max_cycle;Signal;HPM_P1;HPM_P2
2024/03/06 00:02:07;;;;;;;34.10;11.25;;;;;;;;;;4996816;28;20048;-79
2024/03/06 00:04:34;;;;;;;36.85;10.52;;;;;;;;;;5014376;28;20049;-79
2024/03/06 00:07:01;;;;;;;41.22;11.27;;;;;;;;;;5001108;28;20537;-78
2024/03/06 00:09:27;;;;;;;31.88;11.23;;;;;;;;;;4994071;28;20046;-79
2024/03/06 00:11:58;;;;;;;42.63;11.43;;;;;;;;;;4996841;28;20456;-79
2024/03/06 00:14:24;;;;;;;41.65;10.70;;;;;;;;;;4994015;28;20536;-78
2024/03/06 00:16:51;;;;;;;37.92;10.20;;;;;;;;;;4994622;28;20141;-79
2024/03/06 00:19:18;;;;;;;33.10;10.63;;;;;;;;;;4994180;28;20058;-79
2024/03/06 00:21:45;;;;;;;38.00;10.20;;;;;;;;;;4994493;28;20050;-79
2024/03/06 00:24:13;;;;;;;34.60;10.68;;;;;;;;;;4993879;28;20073;-78
2024/03/06 00:26:41;;;;;;;32.25;10.63;;;;;;;;;;5012429;28;20464;-78
2024/03/06 00:29:08;;;;;;;39.53;9.63;;;;;;;;;;5013517;28;20049;-79
2024/03/06 00:31:36;;;;;;;39.28;11.65;;;;;;;;;;5015275;28;20042;-79
2024/03/06 00:34:04;;;;;;;33.92;11.15;;;;;;;;;;5013820;28;20128;-79
2024/03/06 00:36:31;;;;;;;38.97;14.57;;;;;;;;;;5013201;28;20054;-78
2024/03/06 00:38:58;;;;;;;39.05;10.90;;;;;;;;;;5015114;28;20061;-78
2024/03/06 00:41:24;;;;;;;34.33;10.75;;;;;;;;;;4998906;28;20049;-78
2024/03/06 00:43:53;;;;;;;33.90;12.45;;;;;;;;;;5015256;28;20129;-79
2024/03/06 00:46:19;;;;;;;31.35;10.13;;;;;;;;;;5013118;28;20473;-79
2024/03/06 00:48:46;;;;;;;31.40;10.70;;;;;;;;;;5013690;28;20061;-78
2024/03/06 00:51:13;;;;;;;28.45;9.70;;;;;;;;;;4996984;28;20056;-79
2024/03/06 00:53:40;;;;;;;31.20;10.48;;;;;;;;;;5014716;28;20042;-79
2024/03/06 00:56:07;;;;;;;33.42;10.68;;;;;;;;;;5012970;28;20045;-79
2024/03/06 00:58:34;;;;;;;33.38;10.93;;;;;;;;;;4997145;28;20058;-79
2024/03/06 01:01:01;;;;;;;26.77;10.23;;;;;;;;;;5014607;28;20050;-79
2024/03/06 01:03:28;;;;;;;32.55;11.27;;;;;;;;;;4996321;28;20037;-79
2024/03/06 01:05:55;;;;;;;34.78;10.80;;;;;;;;;;4997069;28;20050;-79
2024/03/06 01:08:24;;;;;;;30.75;11.32;;;;;;;;;;4996467;28;20108;-79
2024/03/06 01:10:51;;;;;;;34.13;10.52;;;;;;;;;;5013446;28;20053;-79
2024/03/06 01:13:19;;;;;;;40.95;10.70;;;;;;;;;;5012816;28;20053;-79
2024/03/06 01:15:46;;;;;;;32.85;9.07;;;;;;;;;;5014236;28;20058;-79
2024/03/06 01:18:13;;;;;;;35.97;10.80;;;;;;;;;;5012607;28;20050;-78
2024/03/06 01:20:40;;;;;;;30.00;9.30;;;;;;;;;;5013103;28;20109;-79
2024/03/06 01:23:07;;;;;;;27.52;9.43;;;;;;;;;;5012393;28;20464;-79
2024/03/06 01:25:34;;;;;;;35.08;10.15;;;;;;;;;;5003737;28;20511;-78
2024/03/06 01:28:02;;;;;;;32.92;11.25;;;;;;;;;;4977394;28;20073;-78
2024/03/06 01:30:29;;;;;;;31.63;10.33;;;;;;;;;;4994237;28;20061;-79
2024/03/06 01:32:55;;;;;;;36.33;10.88;;;;;;;;;;4994553;28;20282;-79
2024/03/06 01:35:23;;;;;;;28.52;9.23;;;;;;;;;;5006785;28;20140;-78
2024/03/06 01:37:50;;;;;;;32.28;9.32;;;;;;;;;;5012969;28;20042;-78
2024/03/06 01:40:17;;;;;;;37.80;10.40;;;;;;;;;;5006938;28;20420;-79
2024/03/06 01:42:47;;;;;;;34.90;10.68;;;;;;;;;;5012839;28;20454;-79
2024/03/06 01:45:13;;;;;;;29.08;9.25;;;;;;;;;;5012217;28;20034;-79
2024/03/06 01:47:40;;;;;;;30.75;9.38;;;;;;;;;;4996146;28;20054;-79
2024/03/06 01:50:09;;;;;;;33.55;11.00;;;;;;;;;;5013016;28;20041;-79
2024/03/06 01:52:39;;;;;;;26.83;10.05;;;;;;;;;;5012467;28;20519;-79
2024/03/06 01:55:07;;;;;;;31.58;9.38;;;;;;;;;;4995583;28;20079;-79
2024/03/06 01:57:34;;;;;;;27.35;8.73;;;;;;;;;;5012504;28;20132;-79
2024/03/06 02:00:03;;;;;;;38.90;9.70;;;;;;;;;;5012341;28;20480;-78
2024/03/06 02:02:30;;;;;;;;;;;;;;;;;;5012291;28;20053;-78
2024/03/06 02:04:59;;;;;;;31.15;8.32;;;;;;;;;;5012272;28;19928;-78
2024/03/06 02:07:29;;;;;;;32.33;8.48;;;;;;;;;;5012032;28;20096;-78
2024/03/06 02:09:55;;;;;;;38.15;9.73;;;;;;;;;;5011798;28;20054;-79
2024/03/06 02:12:22;;;;;;;38.42;8.68;;;;;;;;;;5011634;28;20048;-79
2024/03/06 02:14:49;;;;;;;27.02;7.90;;;;;;;;;;4995830;28;20046;-79
2024/03/06 02:17:16;;;;;;;35.13;8.65;;;;;;;;;;5011486;28;20042;-79
2024/03/06 02:19:43;;;;;;;28.40;8.40;;;;;;;;;;5012259;28;20041;-79
2024/03/06 02:22:11;;;;;;;25.58;7.85;;;;;;;;;;4995315;28;20366;-79
2024/03/06 02:24:40;;;;;;;28.70;7.93;;;;;;;;;;5012012;28;20100;-78
2024/03/06 02:27:07;;;;;;;22.52;7.32;;;;;;;;;;4993324;28;20112;-79
2024/03/06 02:29:34;;;;;;;26.55;7.53;;;;;;;;;;4976139;28;20126;-78
2024/03/06 02:32:04;;;;;;;31.17;8.38;;;;;;;;;;4993872;28;20125;-78
2024/03/06 02:34:30;;;;;;;30.52;7.95;;;;;;;;;;5000301;28;20056;-79
2024/03/06 02:36:57;;;;;;;28.42;6.97;;;;;;;;;;5011743;28;20405;-79
2024/03/06 02:39:24;;;;;;;31.42;7.40;;;;;;;;;;5011286;28;20069;-79
2024/03/06 02:41:51;;;;;;;26.00;7.80;;;;;;;;;;5011763;28;20046;-79
2024/03/06 02:44:18;;;;;;;33.88;7.60;;;;;;;;;;4993917;28;20050;-79
2024/03/06 02:46:49;;;;;;;34.55;8.10;;;;;;;;;;5011738;28;20137;-79
2024/03/06 02:49:17;;;;;;;22.85;7.28;;;;;;;;;;5010055;28;20038;-79
2024/03/06 02:51:44;;;;;;;27.10;7.80;;;;;;;;;;5011653;28;20046;-79
2024/03/06 02:54:11;;;;;;;32.50;8.75;;;;;;;;;;4993860;28;20058;-79
2024/03/06 02:56:38;;;;;;;30.73;8.27;;;;;;;;;;5010338;28;20041;-79
2024/03/06 02:59:05;;;;;;;34.40;8.73;;;;;;;;;;4993599;28;20042;-79
2024/03/06 03:01:32;;;;;;;29.48;8.90;;;;;;;;;;4998106;28;20110;-79
2024/03/06 03:03:59;;;;;;;29.83;7.65;;;;;;;;;;5016005;28;20050;-78
2024/03/06 03:06:26;;;;;;;26.95;8.73;;;;;;;;;;5000023;28;20049;-79
2024/03/06 03:08:53;;;;;;;26.83;8.73;;;;;;;;;;5015570;28;20049;-79
2024/03/06 03:11:19;;;;;;;29.27;7.70;;;;;;;;;;5014980;28;20046;-79
2024/03/06 03:13:46;;;;;;;37.00;8.55;;;;;;;;;;5016367;28;20069;-79
2024/03/06 03:16:17;;;;;;;33.63;8.50;;;;;;;;;;5014910;28;20056;-80
2024/03/06 03:18:45;;;;;;;33.55;8.63;;;;;;;;;;5016735;28;20092;-78
2024/03/06 03:21:12;;;;;;;30.80;8.32;;;;;;;;;;5014696;28;20077;-79
2024/03/06 03:23:39;;;;;;;35.65;8.68;;;;;;;;;;5015392;28;20042;-80
2024/03/06 03:26:09;;;;;;;31.35;9.20;;;;;;;;;;5014736;28;20049;-79
2024/03/06 03:28:39;;;;;;;34.38;8.43;;;;;;;;;;5014976;28;20049;-79
2024/03/06 03:31:08;;;;;;;33.42;7.75;;;;;;;;;;4998353;28;20046;-79
2024/03/06 03:33:44;;;;;;;33.22;8.48;;;;;;;;;;5016296;28;20058;-79
2024/03/06 03:36:11;;;;;;;37.80;8.85;;;;;;;;;;4996148;28;20540;-79
2024/03/06 03:38:40;;;;;;;38.72;9.43;;;;;;;;;;4979118;28;20057;-80
2024/03/06 03:41:16;;;;;;;30.90;9.25;;;;;;;;;;4994936;28;20409;-79
2024/03/06 03:43:43;;;;;;;34.95;9.55;;;;;;;;;;4979279;28;20046;-79
2024/03/06 03:46:10;;;;;;;34.28;9.20;;;;;;;;;;4994955;28;20050;-79
2024/03/06 03:48:37;;;;;;;41.95;10.05;;;;;;;;;;4995392;28;20076;-79
2024/03/06 03:51:06;;;;;;;32.38;8.85;;;;;;;;;;4994912;28;20477;-79
2024/03/06 03:53:34;;;;;;;28.45;9.90;;;;;;;;;;4996454;28;20100;-79
2024/03/06 03:56:03;;;;;;;34.05;9.80;;;;;;;;;;4995199;28;20392;-77
2024/03/06 03:58:30;;;;;;;35.17;9.40;;;;;;;;;;4994923;28;20057;-77
2024/03/06 04:00:57;;;;;;;38.55;10.32;;;;;;;;;;5011324;28;20043;-78
2024/03/06 04:03:24;;;;;;;28.88;9.50;;;;;;;;;;4995848;28;20137;-78
2024/03/06 04:05:51;;;;;;;40.00;10.25;;;;;;;;;;4994500;28;20497;-79
2024/03/06 04:08:18;;;;;;;28.75;11.10;;;;;;;;;;4994247;28;20536;-79
2024/03/06 04:10:45;;;;;;;35.05;10.88;;;;;;;;;;4994744;28;20049;-79
2024/03/06 04:13:13;;;;;;;28.00;11.18;;;;;;;;;;4993623;28;20054;-79
2024/03/06 04:15:39;;;;;;;28.50;10.75;;;;;;;;;;4994882;28;20046;-78
2024/03/06 04:18:06;;;;;;;31.85;11.02;;;;;;;;;;4993995;28;20054;-78
2024/03/06 04:20:33;;;;;;;29.35;10.20;;;;;;;;;;4995976;28;20366;-79
2024/03/06 04:23:01;;;;;;;29.15;9.90;;;;;;;;;;4995816;28;20047;-78
2024/03/06 04:25:29;;;;;;;30.15;10.73;;;;;;;;;;5002113;28;20053;-78
2024/03/06 04:27:56;;;;;;;33.70;10.43;;;;;;;;;;5014365;28;20137;-79
2024/03/06 04:30:23;;;;;;;25.35;10.23;;;;;;;;;;5013572;28;20048;-79
2024/03/06 04:32:49;;;;;;;20.08;8.98;;;;;;;;;;5015209;28;20068;-78
2024/03/06 04:35:16;;;;;;;21.92;8.82;;;;;;;;;;4997083;28;20133;-78
2024/03/06 04:37:43;;;;;;;18.00;8.43;;;;;;;;;;5015375;28;20053;-77
2024/03/06 04:40:11;;;;;;;20.35;8.73;;;;;;;;;;5014495;28;20046;-79
2024/03/06 04:42:38;;;;;;;17.55;8.43;;;;;;;;;;5013878;28;20092;-79
2024/03/06 04:45:16;;;;;;;20.25;8.75;;;;;;;;;;4997671;28;20416;-79
2024/03/06 04:47:43;;;;;;;17.08;8.13;;;;;;;;;;5013607;28;20133;-77
2024/03/06 04:50:11;;;;;;;20.45;8.75;;;;;;;;;;5013394;28;20045;-79
2024/03/06 04:52:38;;;;;;;19.77;8.30;;;;;;;;;;5014795;28;20444;-79
2024/03/06 04:55:07;;;;;;;23.85;8.38;;;;;;;;;;5013201;28;20488;-78
2024/03/06 04:57:34;;;;;;;16.80;8.57;;;;;;;;;;5015039;28;20071;-78
2024/03/06 05:00:05;;;;;;;18.35;8.63;;;;;;;;;;5013593;28;20042;-78
2024/03/06 05:02:34;;;;;;;14.98;8.18;;;;;;;;;;4984800;28;20050;-79
2024/03/06 05:05:18;;;;;;;17.80;8.63;;;;;;;;;;4994960;28;20046;-78
2024/03/06 05:08:03;;;;;;;24.40;9.43;;;;;;;;;;4993528;28;20185;-79
2024/03/06 05:10:46;;;;;;;18.52;7.85;;;;;;;;;;5007385;28;20057;-79
2024/03/06 05:13:31;;;;;;;32.17;8.60;;;;;;;;;;4987343;28;20046;-78
2024/03/06 05:16:15;;;;;;;17.60;8.55;;;;;;;;;;4994363;28;20477;-78
2024/03/06 05:18:59;;;;;;;27.38;9.80;;;;;;;;;;4993439;28;20057;-78
2024/03/06 05:21:43;;;;;;;38.50;10.70;;;;;;;;;;5014227;28;20496;-78
2024/03/06 05:24:27;;;;;;;32.83;9.88;;;;;;;;;;5011546;28;20173;-79
2024/03/06 05:27:16;;;;;;;54.70;10.10;;;;;;;;;;4993214;28;20133;-79
2024/03/06 05:30:00;;;;;;;;;;;;;;;;;;4993615;28;20058;-78
2024/03/06 05:32:44;;;;;;;21.55;8.85;;;;;;;;;;5009071;28;19921;-78
2024/03/06 05:35:31;;;;;;;24.83;9.48;;;;;;;;;;5011149;28;20046;-79
2024/03/06 05:38:15;;;;;;;17.15;9.20;;;;;;;;;;5028536;28;20451;-79
2024/03/06 05:40:59;;;;;;;17.08;8.68;;;;;;;;;;5013962;28;20108;-78
2024/03/06 05:43:44;;;;;;;37.90;10.35;;;;;;;;;;5013483;28;20068;-79
2024/03/06 05:46:28;;;;;;;30.23;10.55;;;;;;;;;;4998354;28;20057;-79
2024/03/06 05:49:12;;;;;;;25.27;9.65;;;;;;;;;;4998238;28;20053;-79
2024/03/06 05:51:56;;;;;;;39.72;10.70;;;;;;;;;;5012670;28;20049;-79
2024/03/06 05:54:40;;;;;;;52.38;10.90;;;;;;;;;;5013461;28;20041;-78
2024/03/06 05:57:24;;;;;;;48.92;10.73;;;;;;;;;;4998279;28;20144;-78
2024/03/06 06:00:11;;;;;;;48.55;11.60;;;;;;;;;;5013183;28;20053;-79
2024/03/06 06:02:38;;;;;;;77.40;12.43;;;;;;;;;;5012482;28;20097;-79
2024/03/06 06:05:05;;;;;;;72.53;11.95;;;;;;;;;;4995765;28;20385;-77
2024/03/06 06:07:49;;;;;;;49.55;11.77;;;;;;;;;;5012224;28;20149;-78
2024/03/06 06:10:16;;;;;;;42.83;12.07;;;;;;;;;;5012714;28;20393;-79
2024/03/06 06:12:47;;;;;;;87.45;14.38;;;;;;;;;;5012081;28;20042;-78
2024/03/06 06:15:14;;;;;;;121.70;12.75;;;;;;;;;;5011638;28;20046;-78
2024/03/06 06:17:44;;;;;;;78.53;13.38;;;;;;;;;;5013375;28;20092;-78
2024/03/06 06:20:15;;;;;;;108.07;14.82;;;;;;;;;;4995536;28;20491;-79
2024/03/06 06:22:44;;;;;;;85.53;12.55;;;;;;;;;;4996095;28;20428;-78
2024/03/06 06:25:12;;;;;;;145.93;14.13;;;;;;;;;;5005492;28;20497;-78
2024/03/06 06:27:39;;;;;;;97.20;14.07;;;;;;;;;;4992691;28;20128;-78
2024/03/06 06:30:11;;;;;;;75.95;13.02;;;;;;;;;;4991841;28;20104;-77
2024/03/06 06:32:40;;;;;;;102.25;13.77;;;;;;;;;;4992246;28;20100;-78
2024/03/06 06:35:09;;;;;;;131.80;14.50;;;;;;;;;;5003611;28;20053;-78
2024/03/06 06:37:36;;;;;;;148.43;16.25;;;;;;;;;;5011973;28;20056;-79
2024/03/06 06:40:06;;;;;;;152.02;15.60;;;;;;;;;;5008657;28;20049;-78
2024/03/06 06:42:35;;;;;;;141.40;14.93;;;;;;;;;;5012731;28;20069;-78
2024/03/06 06:45:02;;;;;;;119.75;14.98;;;;;;;;;;5011717;28;20137;-78
2024/03/06 06:47:30;;;;;;;141.38;15.77;;;;;;;;;;5011281;28;20049;-78
2024/03/06 06:49:57;;;;;;;167.18;19.02;;;;;;;;;;4995728;28;20467;-79
2024/03/06 06:52:27;;;;;;;192.52;17.33;;;;;;;;;;5012566;28;20365;-78
2024/03/06 06:54:54;;;;;;;177.75;18.48;;;;;;;;;;4995460;28;20424;-78
2024/03/06 06:57:21;;;;;;;165.57;19.08;;;;;;;;;;4995001;28;20054;-79
2024/03/06 06:59:48;;;;;;;108.03;15.95;;;;;;;;;;5011722;28;20053;-78
2024/03/06 07:02:14;;;;;;;110.97;16.17;;;;;;;;;;5010208;28;20045;-78
2024/03/06 07:04:41;;;;;;;97.90;16.65;;;;;;;;;;5011652;28;20392;-78
2024/03/06 07:07:08;;;;;;;137.43;18.85;;;;;;;;;;5012419;28;20049;-78
2024/03/06 07:09:35;;;;;;;120.68;17.30;;;;;;;;;;5012301;28;20041;-79
2024/03/06 07:12:02;;;;;;;144.90;18.45;;;;;;;;;;5011671;28;20050;-78
2024/03/06 07:14:29;;;;;;;181.43;21.50;;;;;;;;;;5011248;28;20046;-79
2024/03/06 07:16:56;;;;;;;198.45;20.80;;;;;;;;;;5012791;28;20050;-80
2024/03/06 07:19:23;;;;;;;166.98;19.23;;;;;;;;;;5012591;28;20230;-79
2024/03/06 07:21:50;;;;;;;193.20;21.45;;;;;;;;;;4995146;28;20057;-79
2024/03/06 07:24:16;;;;;;;76.35;17.20;;;;;;;;;;5011129;28;20416;-79
2024/03/06 07:26:43;;;;;;;140.15;21.38;;;;;;;;;;5010967;28;20416;-80
2024/03/06 07:29:14;;;;;;;123.68;20.02;;;;;;;;;;5009050;28;20046;-80
2024/03/06 07:31:42;;;;;;;151.48;22.23;;;;;;;;;;5009669;28;20392;-79
2024/03/06 07:34:08;;;;;;;199.27;21.55;;;;;;;;;;5008739;28;20062;-79
2024/03/06 07:36:35;;;;;;;148.55;21.33;;;;;;;;;;5009752;28;20053;-80
2024/03/06 07:39:03;;;;;;;144.23;20.83;;;;;;;;;;5010656;28;20085;-80
2024/03/06 07:41:32;;;;;;;119.40;20.30;;;;;;;;;;4995507;28;20050;-79
2024/03/06 07:44:00;;;;;;;115.22;21.33;;;;;;;;;;5011431;28;20046;-80
2024/03/06 07:46:27;;;;;;;157.77;21.40;;;;;;;;;;5011289;28;20052;-79
2024/03/06 07:48:53;;;;;;;124.93;20.70;;;;;;;;;;5014845;28;20485;-80
2024/03/06 07:51:20;;;;;;;111.20;19.95;;;;;;;;;;5015554;28;20046;-80
2024/03/06 07:53:49;;;;;;;142.95;19.50;;;;;;;;;;5016103;28;20041;-79
2024/03/06 07:56:16;;;;;;;71.40;18.52;;;;;;;;;;4997731;28;20038;-78
2024/03/06 07:58:42;;;;;;;108.38;19.58;;;;;;;;;;5015756;28;20560;-79
2024/03/06 08:01:10;;;;;;;101.65;18.95;;;;;;;;;;5014175;28;20299;-79
2024/03/06 08:03:39;;;;;;;78.30;17.02;;;;;;;;;;5004329;28;20047;-79
2024/03/06 08:06:06;;;;;;;;;;;;;;;;;;4995059;28;20050;-79
2024/03/06 08:08:33;;;;;;;97.65;17.75;;;;;;;;;;5014253;28;19922;-79
2024/03/06 08:11:00;;;;;;;67.88;17.17;;;;;;;;;;5014408;28;20097;-80
2024/03/06 08:13:27;;;;;;;80.80;16.83;;;;;;;;;;5013935;28;20057;-79
2024/03/06 08:15:54;;;;;;;69.55;18.10;;;;;;;;;;5014249;28;20057;-80
2024/03/06 08:18:21;;;;;;;86.80;17.80;;;;;;;;;;5015004;28;20057;-79
2024/03/06 08:20:48;;;;;;;53.10;15.35;;;;;;;;;;5014406;28;20061;-79
2024/03/06 08:23:15;;;;;;;49.50;14.35;;;;;;;;;;5013787;28;20049;-79
2024/03/06 08:25:42;;;;;;;40.72;14.00;;;;;;;;;;4987990;28;20066;-78
2024/03/06 08:28:09;;;;;;;35.72;12.95;;;;;;;;;;4995171;28;20481;-79
2024/03/06 08:30:36;;;;;;;27.02;11.93;;;;;;;;;;4997956;28;20491;-80
2024/03/06 08:33:03;;;;;;;23.63;11.07;;;;;;;;;;5012435;28;20049;-79
2024/03/06 08:35:30;;;;;;;26.25;11.75;;;;;;;;;;4996598;28;20388;-79
2024/03/06 08:37:57;;;;;;;36.40;11.93;;;;;;;;;;5014938;28;20522;-79
2024/03/06 08:40:25;;;;;;;50.55;12.48;;;;;;;;;;5013901;28;20164;-79
2024/03/06 08:42:52;;;;;;;36.28;12.25;;;;;;;;;;5013899;28;20054;-79
2024/03/06 08:45:19;;;;;;;43.28;12.73;;;;;;;;;;5014603;28;20076;-78
2024/03/06 08:47:50;;;;;;;19.88;11.10;;;;;;;;;;5013788;28;20104;-79
2024/03/06 08:50:17;;;;;;;38.97;11.73;;;;;;;;;;5013214;28;20117;-79
2024/03/06 08:52:45;;;;;;;47.65;11.77;;;;;;;;;;5015005;28;20125;-78
2024/03/06 08:55:13;;;;;;;29.15;10.40;;;;;;;;;;5013056;28;20046;-79
2024/03/06 08:57:40;;;;;;;64.90;11.30;;;;;;;;;;5013396;28;20420;-79
2024/03/06 09:00:10;;;;;;;38.58;11.02;;;;;;;;;;4996543;28;20046;-78
2024/03/06 09:02:38;;;;;;;50.90;11.75;;;;;;;;;;5013383;28;20050;-79
2024/03/06 09:05:08;;;;;;;50.40;10.95;;;;;;;;;;5012994;28;20067;-79
2024/03/06 09:07:40;;;;;;;90.68;12.45;;;;;;;;;;5013035;28;20472;-79
2024/03/06 09:10:09;;;;;;;50.90;10.90;;;;;;;;;;5012536;28;20056;-79
2024/03/06 09:12:36;;;;;;;;;;;;;;;;;;4996944;28;20100;-79
2024/03/06 09:15:07;;;;;;;122.13;13.43;;;;;;;;;;5004434;28;20010;-82
2024/03/06 09:17:34;;;;;;;76.28;13.07;;;;;;;;;;4994414;28;20114;-79
2024/03/06 09:20:09;;;;;;;149.93;15.40;;;;;;;;;;5013954;28;20469;-79
2024/03/06 09:22:39;;;;;;;217.73;16.42;;;;;;;;;;5011651;28;20133;-77
2024/03/06 09:25:07;;;;;;;75.20;13.18;;;;;;;;;;5012051;28;20464;-79
2024/03/06 09:27:35;;;;;;;99.07;15.48;;;;;;;;;;5010206;28;20121;-78
2024/03/06 09:30:05;;;;;;;253.73;20.05;;;;;;;;;;5012256;28;20519;-78
2024/03/06 09:32:32;;;;;;;205.57;17.60;;;;;;;;;;5009474;28;20464;-78
2024/03/06 09:34:59;;;;;;;84.72;15.63;;;;;;;;;;5012223;28;20034;-79
2024/03/06 09:37:27;;;;;;;114.38;15.68;;;;;;;;;;5011995;28;20061;-78
2024/03/06 09:39:56;;;;;;;266.15;21.00;;;;;;;;;;5009734;28;20046;-80
2024/03/06 09:42:23;;;;;;;121.13;17.25;;;;;;;;;;5011608;28;20056;-79
2024/03/06 09:44:50;;;;;;;153.20;15.38;;;;;;;;;;4996061;28;20038;-80
2024/03/06 09:47:23;;;;;;;152.95;18.58;;;;;;;;;;5011855;28;20085;-80
2024/03/06 09:49:53;;;;;;;68.10;16.30;;;;;;;;;;5013645;28;20053;-80
2024/03/06 09:52:24;;;;;;;145.60;16.67;;;;;;;;;;4995415;28;20046;-78
2024/03/06 09:54:54;;;;;;;146.40;14.18;;;;;;;;;;4995736;28;20123;-78
2024/03/06 09:57:21;;;;;;;77.50;13.52;;;;;;;;;;4995101;28;20048;-79
2024/03/06 09:59:48;;;;;;;96.50;15.77;;;;;;;;;;4995080;28;20054;-79
2024/03/06 10:02:38;;;;;;;83.50;17.58;;;;;;;;;;4995032;28;20042;-80
2024/03/06 10:05:21;;;;;;;111.13;27.05;;;;;;;;;;5010609;28;20558;-80
2024/03/06 10:07:51;;;;;;;53.83;18.38;;;;;;;;;;5011770;28;20539;-80
2024/03/06 10:10:19;;;;;;;33.88;16.13;;;;;;;;;;4994032;28;20033;-80
2024/03/06 10:12:47;;;;;;;67.65;20.73;;;;;;;;;;5011559;28;20376;-80
2024/03/06 10:15:15;;;;;;;43.92;23.42;;;;;;;;;;4994666;28;20096;-80
2024/03/06 10:17:42;;;;;;;40.38;23.17;;;;;;;;;;5011851;28;20046;-79
2024/03/06 10:20:19;;;;;;;46.80;25.65;;;;;;;;;;5012164;28;20050;-79
2024/03/06 10:22:49;;;;;;;69.75;40.17;;;;;;;;;;5011659;28;20112;-79
2024/03/06 10:25:21;;;;;;;83.90;50.45;;;;;;;;;;5019357;28;20100;-80
2024/03/06 10:28:07;;;;;;;33.28;21.90;;;;;;;;;;5012712;28;20057;-79
2024/03/06 10:30:35;;;;;;;35.33;24.35;;;;;;;;;;5008114;28;20050;-80
2024/03/06 10:33:04;;;;;;;25.23;15.32;;;;;;;;;;4993583;28;20042;-79
2024/03/06 10:35:37;;;;;;;;;;;;;;;;;;4991070;28;20045;-80
2024/03/06 10:38:05;;;;;;;30.88;18.48;;;;;;;;;;4995252;28;19922;-79
2024/03/06 10:40:35;;;;;;;37.80;18.67;;;;;;;;;;5011932;28;20054;-80
2024/03/06 10:43:05;;;;;;;25.02;17.23;;;;;;;;;;5011847;28;20053;-79
2024/03/06 10:45:44;;;;;;;24.85;15.55;;;;;;;;;;5011694;28;20100;-80
2024/03/06 10:48:13;;;;;;;30.15;19.42;;;;;;;;;;4994996;28;20046;-80
2024/03/06 10:50:43;;;;;;;24.35;15.25;;;;;;;;;;5013257;28;20135;-81
2024/03/06 10:53:15;;;;;;;22.63;12.10;;;;;;;;;;4994944;28;20072;-81
2024/03/06 10:55:49;;;;;;;19.20;11.43;;;;;;;;;;5013014;28;20049;-81
2024/03/06 10:58:16;;;;;;;33.75;18.35;;;;;;;;;;4994800;28;20053;-80
2024/03/06 11:00:47;;;;;;;24.38;11.63;;;;;;;;;;5011056;28;20056;-80
2024/03/06 11:03:15;;;;;;;19.50;12.80;;;;;;;;;;4995012;28;20046;-81
2024/03/06 11:05:46;;;;;;;27.25;11.88;;;;;;;;;;5011814;28;20088;-81
2024/03/06 11:08:15;;;;;;;18.08;10.20;;;;;;;;;;5010985;28;20104;-80
2024/03/06 11:10:43;;;;;;;18.02;9.88;;;;;;;;;;5020844;28;20045;-80
2024/03/06 11:13:24;;;;;;;30.43;20.73;;;;;;;;;;5010709;28;20056;-81
2024/03/06 11:15:53;;;;;;;18.40;10.77;;;;;;;;;;5008591;28;20272;-80
2024/03/06 11:18:29;;;;;;;17.42;10.52;;;;;;;;;;4996355;28;20062;-80
2024/03/06 11:21:19;;;;;;;15.00;9.27;;;;;;;;;;5010640;28;20042;-81
2024/03/06 11:24:15;;;;;;;18.55;7.25;;;;;;;;;;5012075;28;20138;-81
2024/03/06 11:26:45;;;;;;;18.50;7.97;;;;;;;;;;5006717;28;20052;-81
2024/03/06 11:29:16;;;;;;;16.45;7.65;;;;;;;;;;5025909;28;20061;-80
2024/03/06 11:32:07;;;;;;;19.48;9.23;;;;;;;;;;5015506;28;20112;-80
2024/03/06 11:34:36;;;;;;;16.98;6.88;;;;;;;;;;5014810;28;20077;-80
2024/03/06 11:37:04;;;;;;;16.15;6.50;;;;;;;;;;4999120;28;20467;-81
2024/03/06 11:39:36;;;;;;;12.05;5.55;;;;;;;;;;5016233;28;20076;-81
2024/03/06 11:42:10;;;;;;;19.85;6.47;;;;;;;;;;4998911;28;20050;-81
2024/03/06 11:44:53;;;;;;;18.20;6.25;;;;;;;;;;4998657;28;20034;-81
2024/03/06 11:47:20;;;;;;;14.65;7.35;;;;;;;;;;5011729;28;20033;-80
2024/03/06 11:49:48;;;;;;;12.32;6.22;;;;;;;;;;5014563;28;20077;-80
2024/03/06 11:52:14;;;;;;;11.75;6.50;;;;;;;;;;4997402;28;20061;-81
2024/03/06 11:54:41;;;;;;;12.63;5.10;;;;;;;;;;5013818;28;20050;-80
2024/03/06 11:57:10;;;;;;;11.60;4.72;;;;;;;;;;5014717;28;20049;-79
2024/03/06 11:59:39;;;;;;;;;;;;;;;;;;5015342;28;20362;-79
2024/03/06 12:02:06;;;;;;;10.45;4.93;;;;;;;;;;5014394;28;19967;-80
2024/03/06 12:04:37;;;;;;;10.23;4.07;;;;;;;;;;5016245;28;20050;-78
2024/03/06 12:07:05;;;;;;;12.60;5.20;;;;;;;;;;4997025;28;20076;-80
2024/03/06 12:09:34;;;;;;;11.98;3.50;;;;;;;;;;5013454;28;20046;-79
2024/03/06 12:12:08;;;;;;;17.20;5.28;;;;;;;;;;5011259;28;20057;-80
2024/03/06 12:14:35;;;;;;;10.20;4.03;;;;;;;;;;5013600;28;20042;-79
2024/03/06 12:17:07;;;;;;;12.88;4.10;;;;;;;;;;5015122;28;20048;-81
2024/03/06 12:19:35;;;;;;;11.57;4.22;;;;;;;;;;4997527;28;20041;-79
2024/03/06 12:22:06;;;;;;;18.92;4.82;;;;;;;;;;5013821;28;20058;-80
2024/03/06 12:24:36;;;;;;;12.55;3.83;;;;;;;;;;5012949;28;20084;-80
2024/03/06 12:27:04;;;;;;;13.55;3.17;;;;;;;;;;5013674;28;20038;-81
2024/03/06 12:29:37;;;;;;;13.60;3.58;;;;;;;;;;5013294;28;20053;-80
2024/03/06 12:32:17;;;;;;;17.42;4.97;;;;;;;;;;5013154;28;20041;-78
2024/03/06 12:34:56;;;;;;;10.98;3.50;;;;;;;;;;4997325;28;20160;-79
2024/03/06 12:37:32;;;;;;;14.38;4.25;;;;;;;;;;5013862;28;20052;-80
2024/03/06 12:40:13;;;;;;;6.60;1.70;;;;;;;;;;5014059;28;20044;-80
2024/03/06 12:42:40;;;;;;;4.82;1.38;;;;;;;;;;5013074;28;20046;-80
2024/03/06 12:45:08;;;;;;;11.65;7.03;;;;;;;;;;5014170;28;20096;-80
2024/03/06 12:47:35;;;;;;;6.65;1.60;;;;;;;;;;5013405;28;20053;-80
2024/03/06 12:50:02;;;;;;;4.95;1.30;;;;;;;;;;5010166;28;20430;-80
2024/03/06 12:52:29;;;;;;;13.60;2.28;;;;;;;;;;4996273;28;20054;-80
2024/03/06 12:54:55;;;;;;;6.72;1.50;;;;;;;;;;5012879;28;20041;-79
2024/03/06 12:57:22;;;;;;;11.98;2.08;;;;;;;;;;5010281;28;20048;-80
2024/03/06 12:59:50;;;;;;;8.88;1.80;;;;;;;;;;5014224;28;20046;-79
2024/03/06 13:02:16;;;;;;;10.80;2.28;;;;;;;;;;5012094;28;20048;-80
2024/03/06 13:04:43;;;;;;;15.25;3.15;;;;;;;;;;5014222;28;20053;-79
2024/03/06 13:07:11;;;;;;;17.88;2.85;;;;;;;;;;5013546;28;20456;-78
2024/03/06 13:09:37;;;;;;;17.25;3.03;;;;;;;;;;5013987;28;20491;-79
2024/03/06 13:12:06;;;;;;;18.52;3.42;;;;;;;;;;4995980;28;20042;-77
2024/03/06 13:14:32;;;;;;;22.30;4.05;;;;;;;;;;4995281;28;20054;-80
2024/03/06 13:17:00;;;;;;;20.20;4.63;;;;;;;;;;5005008;28;20134;-79
2024/03/06 13:19:28;;;;;;;15.07;3.63;;;;;;;;;;4983521;28;20054;-80
2024/03/06 13:21:55;;;;;;;17.52;3.33;;;;;;;;;;5012157;28;20049;-79
2024/03/06 13:24:22;;;;;;;20.85;3.38;;;;;;;;;;5006767;28;20097;-79
2024/03/06 13:26:49;;;;;;;15.82;3.88;;;;;;;;;;5011141;28;20050;-80
2024/03/06 13:29:16;;;;;;;17.13;3.00;;;;;;;;;;5007772;28;20041;-80
2024/03/06 13:31:43;;;;;;;25.02;4.18;;;;;;;;;;4993750;28;20045;-80
2024/03/06 13:34:12;;;;;;;14.68;3.22;;;;;;;;;;5009437;28;20038;-80
2024/03/06 13:36:41;;;;;;;16.63;3.33;;;;;;;;;;5004076;28;20045;-81
2024/03/06 13:39:08;;;;;;;17.27;2.70;;;;;;;;;;5010085;28;20037;-81
2024/03/06 13:41:36;;;;;;;13.13;2.83;;;;;;;;;;4993685;28;20046;-80
2024/03/06 13:44:11;;;;;;;13.68;2.28;;;;;;;;;;5010839;28;20045;-80
2024/03/06 13:46:37;;;;;;;14.52;2.65;;;;;;;;;;4995174;28;20052;-81
2024/03/06 13:49:14;;;;;;;17.02;2.33;;;;;;;;;;4995542;28;20480;-79
2024/03/06 13:51:41;;;;;;;7.28;1.67;;;;;;;;;;4992257;28;20042;-78
2024/03/06 13:54:07;;;;;;;14.45;1.83;;;;;;;;;;5004073;28;20045;-79
2024/03/06 13:56:34;;;;;;;18.23;2.58;;;;;;;;;;4994648;28;20137;-79
2024/03/06 13:59:02;;;;;;;15.95;5.57;;;;;;;;;;5013226;28;20046;-79
2024/03/06 14:01:29;;;;;;;14.90;3.90;;;;;;;;;;4995773;28;20121;-79
2024/03/06 14:03:55;;;;;;;17.55;3.40;;;;;;;;;;5011351;28;20403;-79
2024/03/06 14:06:22;;;;;;;15.82;1.90;;;;;;;;;;5010250;28;20034;-78
2024/03/06 14:08:49;;;;;;;12.93;2.47;;;;;;;;;;5011139;28;20038;-79
2024/03/06 14:11:15;;;;;;;12.70;2.05;;;;;;;;;;5010968;28;20073;-80
2024/03/06 14:13:42;;;;;;;17.13;3.65;;;;;;;;;;5011566;28;20049;-79
2024/03/06 14:16:10;;;;;;;12.95;2.17;;;;;;;;;;5009665;28;20480;-79
2024/03/06 14:18:37;;;;;;;15.82;3.83;;;;;;;;;;4995364;28;20527;-79
2024/03/06 14:21:04;;;;;;;13.77;2.90;;;;;;;;;;4994751;28;20042;-79
2024/03/06 14:23:32;;;;;;;14.40;3.33;;;;;;;;;;5011689;28;20472;-79
2024/03/06 14:25:59;;;;;;;13.77;2.50;;;;;;;;;;5012805;28;20493;-79
2024/03/06 14:28:26;;;;;;;13.20;3.63;;;;;;;;;;5012738;28;20061;-79
2024/03/06 14:30:53;;;;;;;14.90;3.03;;;;;;;;;;5011198;28;20123;-79
2024/03/06 14:33:19;;;;;;;23.38;3.13;;;;;;;;;;5011987;28;20052;-80
2024/03/06 14:35:49;;;;;;;14.35;2.28;;;;;;;;;;5012316;28;20095;-80
2024/03/06 14:38:17;;;;;;;22.27;3.17;;;;;;;;;;4994695;28;20034;-79